Time;durP1;ratioP1;P1;durP2;ratioP2;P2;SDS_P1;SDS_P2;PMS_P1;PMS_P2;Temp;Humidity;BMP_temperature;BMP_pressure;BME280_temperature;BME280_humidity;BME280_pressure;Samples;Min_cycle;Max_cycle;Signal;HPM_P1;HPM_P2
2022/06/04 00:01:36;;;;;;;29.83;2.33;;;;;;;22.84;53.33;99504.25;7312068;19;129200;-40
2022/06/04 00:04:02;;;;;;;39.47;3.53;;;;;;;22.87;52.95;99507.38;7312787;19;129024;-42
2022/06/04 00:06:27;;;;;;;26.05;2.17;;;;;;;22.89;53.03;99515.09;7313903;19;129252;-43
2022/06/04 00:08:53;;;;;;;7.38;0.90;;;;;;;22.90;52.50;99506.25;7315149;19;130173;-41
2022/06/04 00:16:46;;;;;;;18.90;1.50;;;;;;;22.42;50.50;99510.97;7314079;19;128865;-40
2022/06/04 00:19:12;;;;;;;19.70;1.67;;;;;;;22.39;49.55;99508.66;7312693;19;129561;-43
2022/06/04 00:21:38;;;;;;;23.33;1.88;;;;;;;22.47;50.49;99508.72;7310543;19;131172;-43
2022/06/04 00:24:04;;;;;;;29.08;2.50;;;;;;;22.66;52.40;99509.47;7313525;19;129368;-43
2022/06/04 00:26:29;;;;;;;32.00;2.57;;;;;;;22.74;52.55;99506.91;7313685;19;129113;-43
2022/06/04 00:28:55;;;;;;;30.25;2.58;;;;;;;22.74;52.34;99498.25;7313711;19;130030;-41
2022/06/04 00:31:20;;;;;;;25.65;2.03;;;;;;;22.87;51.87;99523.09;7310929;19;129665;-41
2022/06/04 00:33:46;;;;;;;16.40;1.58;;;;;;;22.84;52.45;99506.88;7314247;19;129305;-43
2022/06/04 00:36:12;;;;;;;24.42;1.98;;;;;;;22.94;52.67;99520.72;7313963;19;129353;-43
2022/06/04 00:38:37;;;;;;;11.15;1.15;;;;;;;22.94;51.80;99528.59;7314520;19;130150;-41
2022/06/04 00:41:12;;;;;;;23.63;1.92;;;;;;;22.93;53.13;99522.50;7310998;19;129861;-40
2022/06/04 00:44:01;;;;;;;28.33;2.30;;;;;;;22.81;54.38;99502.72;7312687;19;128900;-41
2022/06/04 00:46:42;;;;;;;14.00;1.33;;;;;;;22.91;54.42;99521.00;7311678;19;129046;-42
2022/06/04 00:49:13;;;;;;;24.42;2.00;;;;;;;22.91;53.64;99529.69;7313293;19;129955;-41
2022/06/04 00:51:42;;;;;;;17.23;1.45;;;;;;;22.81;53.43;99510.59;7310213;19;131586;-43
2022/06/04 00:54:07;;;;;;;27.58;2.38;;;;;;;22.90;52.43;99532.47;7313548;19;128989;-41
2022/06/04 00:56:38;;;;;;;20.27;1.75;;;;;;;22.80;53.98;99510.75;7313302;19;129108;-42
2022/06/04 00:59:24;;;;;;;35.28;2.75;;;;;;;22.81;53.24;99515.00;7312311;19;130118;-42
2022/06/04 01:02:11;;;;;;;26.83;2.15;;;;;;;22.44;50.22;99509.88;7309560;19;130526;-41
2022/06/04 01:05:15;;;;;;;24.67;2.00;;;;;;;22.41;49.89;99520.63;7312752;19;128794;-42
2022/06/04 01:08:17;;;;;;;28.65;2.20;;;;;;;22.53;52.08;99529.13;7311294;19;129053;-42
2022/06/04 01:11:07;;;;;;;28.48;2.30;;;;;;;22.69;53.79;99522.25;7310911;19;130171;-41
2022/06/04 01:13:48;;;;;;;39.63;3.40;;;;;;;22.78;52.88;99524.00;7310436;19;129402;-42
2022/06/04 01:16:31;;;;;;;22.90;2.10;;;;;;;22.88;54.15;99526.56;7309067;19;128860;-42
2022/06/04 01:19:29;;;;;;;32.65;2.50;;;;;;;22.90;53.85;99516.75;7311656;19;128936;-42
2022/06/04 01:22:08;;;;;;;22.00;1.92;;;;;;;22.93;54.61;99511.19;7307185;19;130271;-41
2022/06/04 01:24:56;;;;;;;24.88;2.15;;;;;;;22.92;53.79;99507.75;7312042;19;130395;-43
2022/06/04 01:27:40;;;;;;;19.90;2.03;;;;;;;22.96;54.01;99505.66;7310404;19;129067;-41
2022/06/04 01:30:43;;;;;;;32.75;2.83;;;;;;;22.88;54.26;99492.47;7310917;19;128982;-41
2022/06/04 01:33:14;;;;;;;26.15;2.17;;;;;;;22.93;53.30;99503.34;7309715;19;130262;-41
2022/06/04 01:36:01;;;;;;;47.90;4.13;;;;;;;22.87;54.79;99498.69;7311660;19;129536;-41
2022/06/04 01:38:34;;;;;;;27.20;2.42;;;;;;;22.94;53.85;99510.25;7312527;19;129013;-42
2022/06/04 01:41:07;;;;;;;21.90;1.80;;;;;;;22.94;53.67;99512.88;7309477;19;129235;-42
2022/06/04 01:43:48;;;;;;;34.20;2.92;;;;;;;22.92;55.00;99509.56;7309077;19;130054;-42
2022/06/04 01:46:27;;;;;;;24.35;2.05;;;;;;;22.92;54.38;99504.31;7310987;19;130474;-41
2022/06/04 01:48:59;;;;;;;20.98;1.60;;;;;;;22.45;50.02;99510.66;7311483;19;129199;-42
2022/06/04 01:51:28;;;;;;;25.63;2.08;;;;;;;22.42;49.95;99526.69;7309072;19;128840;-42
2022/06/04 01:54:01;;;;;;;19.88;1.55;;;;;;;22.50;51.36;99529.38;7310500;19;129001;-40
2022/06/04 01:56:38;;;;;;;30.27;2.60;;;;;;;22.68;52.77;99527.66;7310329;19;129277;-42
2022/06/04 01:59:16;;;;;;;29.87;2.33;;;;;;;22.80;54.00;99542.19;7311307;19;128859;-41
2022/06/04 02:01:43;;;;;;;23.60;1.95;;;;;;;22.85;52.67;99543.41;7308273;19;129122;-41
2022/06/04 02:04:15;;;;;;;24.85;2.05;;;;;;;22.89;52.95;99536.88;7311068;19;130250;-44
2022/06/04 02:07:29;;;;;;;24.60;2.10;;;;;;;22.83;52.88;99515.69;7310756;19;130520;-42
2022/06/04 02:09:35;;;;;;;21.40;2.20;;;;;;;22.87;52.31;99511.81;7310258;19;128790;-41
2022/06/04 02:12:04;;;;;;;13.80;1.42;;;;;;;22.92;53.19;99520.03;7309315;19;128861;-41
2022/06/04 02:14:30;;;;;;;26.17;2.03;;;;;;;22.93;52.25;99524.31;7311141;19;131222;-43
2022/06/04 02:17:04;;;;;;;12.50;1.20;;;;;;;22.93;54.08;99513.81;7310476;19;129327;-41
2022/06/04 02:19:30;;;;;;;32.70;2.92;;;;;;;22.90;52.37;99493.16;7309314;19;129251;-41
2022/06/04 02:21:55;;;;;;;11.48;1.35;;;;;;;22.94;53.74;99497.13;7306409;19;129449;-42
2022/06/04 02:24:21;;;;;;;26.10;2.15;;;;;;;22.98;52.60;99501.09;7309886;19;129941;-42
2022/06/04 02:26:47;;;;;;;20.57;1.77;;;;;;;22.96;52.81;99495.16;7311015;19;129370;-41
2022/06/04 02:29:13;;;;;;;52.55;3.85;;;;;;;22.96;53.55;99495.16;7315888;19;129425;-41
2022/06/04 02:31:48;;;;;;;42.95;3.17;;;;;;;22.75;52.34;99486.78;7310806;19;128890;-41
2022/06/04 02:34:25;;;;;;;22.80;1.90;;;;;;;22.48;50.12;99494.66;7315070;19;130835;-43
2022/06/04 02:36:59;;;;;;;22.08;1.75;;;;;;;22.46;49.75;99501.84;7315819;19;129362;-42
2022/06/04 02:39:35;;;;;;;29.02;2.30;;;;;;;22.61;52.70;99495.19;7316396;19;129189;-41
2022/06/04 02:42:05;;;;;;;8.05;1.02;;;;;;;22.74;52.73;99500.88;7316126;19;129109;-42
2022/06/04 02:44:51;;;;;;;54.50;3.95;;;;;;;22.84;53.46;99496.38;7315742;19;129097;-40
2022/06/04 02:47:28;;;;;;;21.75;1.75;;;;;;;22.92;53.43;99488.59;7316798;19;129190;-41
2022/06/04 02:50:08;;;;;;;35.57;2.83;;;;;;;22.95;54.18;99481.25;7315343;19;128937;-40
2022/06/04 02:52:35;;;;;;;13.93;1.38;;;;;;;22.97;52.77;99481.09;7317443;19;128895;-41
2022/06/04 02:55:10;;;;;;;18.48;1.83;;;;;;;22.97;52.02;99465.38;7316281;19;131188;-42
2022/06/04 02:57:39;;;;;;;25.88;2.15;;;;;;;22.97;52.91;99463.53;7315971;19;130470;-41
2022/06/04 03:00:08;;;;;;;21.77;2.17;;;;;;;22.96;52.94;99464.53;7315212;19;128865;-43
2022/06/04 03:02:35;;;;;;;25.27;2.25;;;;;;;22.95;52.80;99456.81;7314980;19;129584;-43
2022/06/04 03:05:09;;;;;;;25.17;2.08;;;;;;;22.97;53.69;99454.88;7316589;19;131554;-43
2022/06/04 03:07:37;;;;;;;27.80;2.40;;;;;;;22.96;52.73;99466.31;7315612;19;131695;-41
2022/06/04 03:10:09;;;;;;;29.27;2.67;;;;;;;22.93;54.14;99464.00;7316207;19;129012;-41
2022/06/04 03:12:34;;;;;;;18.80;1.77;;;;;;;22.99;53.01;99463.41;7316539;19;128782;-42
2022/06/04 03:15:00;;;;;;;25.40;2.15;;;;;;;22.98;53.79;99473.06;7316308;19;129043;-43
2022/06/04 03:17:25;;;;;;;13.55;1.42;;;;;;;22.65;50.71;99486.03;7314985;19;130312;-42
2022/06/04 03:19:50;;;;;;;38.27;3.23;;;;;;;22.47;50.36;99487.78;7314480;19;129311;-42
2022/06/04 03:22:17;;;;;;;24.17;2.03;;;;;;;22.47;49.50;99498.25;7315236;19;129216;-42
2022/06/04 03:24:42;;;;;;;11.32;1.10;;;;;;;22.66;51.94;99503.41;7315690;19;131018;-42
2022/06/04 03:27:08;;;;;;;23.90;1.90;;;;;;;22.77;53.03;99500.56;7315133;19;129888;-42
2022/06/04 03:29:33;;;;;;;26.65;2.25;;;;;;;22.86;52.86;99497.03;7316541;19;129111;-42
2022/06/04 03:31:58;;;;;;;11.15;1.15;;;;;;;22.91;52.06;99492.16;7312080;19;129387;-41
2022/06/04 03:34:24;;;;;;;34.60;2.90;;;;;;;22.94;51.81;99491.88;7314416;19;130142;-41
2022/06/04 03:36:49;;;;;;;23.92;2.03;;;;;;;22.87;52.99;99475.91;7314619;19;129146;-43
2022/06/04 03:39:15;;;;;;;20.13;1.73;;;;;;;22.98;53.00;99493.22;7313107;19;130236;-41
2022/06/04 03:41:40;;;;;;;19.15;1.77;;;;;;;22.98;52.79;99491.44;7312550;19;129978;-42
2022/06/04 03:44:06;;;;;;;23.83;1.98;;;;;;;22.98;53.03;99477.47;7315286;19;130241;-42
2022/06/04 03:46:31;;;;;;;29.35;2.72;;;;;;;22.97;53.27;99470.59;7311648;19;130324;-42
2022/06/04 03:48:58;;;;;;;25.27;2.10;;;;;;;22.99;53.36;99484.41;7312609;19;128937;-42
2022/06/04 03:51:25;;;;;;;28.92;2.30;;;;;;;22.99;53.32;99484.41;7311494;19;130079;-39
2022/06/04 03:53:51;;;;;;;10.77;1.13;;;;;;;22.97;53.37;99478.47;7314522;19;129718;-43
2022/06/04 03:56:16;;;;;;;22.33;1.95;;;;;;;23.00;52.35;99478.16;7314744;19;130299;-41
2022/06/04 03:58:42;;;;;;;29.02;2.20;;;;;;;22.99;53.60;99477.34;7314119;19;129208;-42
2022/06/04 04:01:21;;;;;;;22.98;1.90;;;;;;;23.01;54.21;99477.19;7313144;19;128829;-40
2022/06/04 04:03:46;;;;;;;20.85;1.80;;;;;;;22.53;50.33;99468.88;7312343;19;129579;-42
2022/06/04 04:06:32;;;;;;;20.38;1.63;;;;;;;22.47;49.65;99465.03;7313574;19;130722;-41
2022/06/04 04:08:58;;;;;;;20.13;1.77;;;;;;;22.48;49.89;99460.59;7314981;19;129057;-43
2022/06/04 04:11:26;;;;;;;26.20;2.15;;;;;;;22.73;52.31;99458.09;7310873;19;129145;-42
2022/06/04 04:13:52;;;;;;;24.23;2.17;;;;;;;22.81;51.92;99460.78;7315094;19;130170;-42
2022/06/04 04:16:20;;;;;;;24.23;1.95;;;;;;;22.90;51.87;99461.69;7314027;19;129434;-42
2022/06/04 04:18:46;;;;;;;17.27;1.45;;;;;;;22.93;52.42;99464.84;7313693;19;129068;-41
2022/06/04 04:21:15;;;;;;;20.85;1.75;;;;;;;22.98;52.86;99472.25;7312106;19;130927;-42
2022/06/04 04:23:41;;;;;;;22.50;1.95;;;;;;;23.01;52.35;99464.06;7311551;19;130288;-41
2022/06/04 04:26:08;;;;;;;24.80;2.08;;;;;;;22.92;52.90;99446.63;7313287;19;130187;-43
2022/06/04 04:28:35;;;;;;;25.10;2.10;;;;;;;23.01;53.40;99466.69;7313696;19;129510;-42
2022/06/04 04:31:00;;;;;;;22.30;2.13;;;;;;;23.00;52.84;99472.91;7311110;19;129329;-40
2022/06/04 04:33:26;;;;;;;20.88;1.85;;;;;;;22.99;52.96;99468.66;7312943;19;129994;-42
2022/06/04 04:35:51;;;;;;;30.70;2.65;;;;;;;23.02;52.89;99468.34;7313154;19;130664;-41
2022/06/04 04:38:18;;;;;;;21.90;2.17;;;;;;;22.94;53.08;99449.94;7313896;19;128988;-41
2022/06/04 04:40:45;;;;;;;37.70;2.70;;;;;;;23.03;52.64;99468.19;7310524;19;129119;-42
2022/06/04 04:43:10;;;;;;;;;;;;;;;23.00;54.57;99462.44;7312719;19;130159;-41
2022/06/04 04:45:36;;;;;;;30.58;2.70;;;;;;;23.04;53.49;99472.47;7312785;19;129997;-41
2022/06/04 04:48:01;;;;;;;21.05;2.10;;;;;;;22.66;50.47;99492.94;7313949;19;128959;-41
2022/06/04 04:50:33;;;;;;;27.20;2.30;;;;;;;22.49;49.82;99496.31;7311247;19;129841;-43
2022/06/04 04:53:01;;;;;;;43.65;3.22;;;;;;;22.49;49.65;99502.38;7313996;19;130443;-42
2022/06/04 04:55:27;;;;;;;32.83;2.58;;;;;;;22.66;51.14;99506.84;7312608;19;130614;-42
2022/06/04 04:57:53;;;;;;;33.90;3.00;;;;;;;22.75;52.69;99500.72;7312501;19;129404;-42
2022/06/04 05:00:19;;;;;;;45.17;3.37;;;;;;;22.81;52.98;99496.66;7309630;19;129901;-42
2022/06/04 05:02:45;;;;;;;10.80;1.15;;;;;;;22.84;52.40;99485.91;7311631;19;131639;-42
2022/06/04 05:05:11;;;;;;;28.47;2.40;;;;;;;22.97;52.67;99507.31;7312683;19;129685;-41
2022/06/04 05:07:38;;;;;;;27.42;2.15;;;;;;;23.02;52.97;99510.31;7311017;19;128838;-42
2022/06/04 05:10:04;;;;;;;;;;;;;;;23.01;54.53;99492.91;7311654;19;128895;-40
2022/06/04 05:12:30;;;;;;;30.83;2.75;;;;;;;23.05;52.58;99499.50;7311912;19;129059;-42
2022/06/04 05:14:55;;;;;;;21.80;1.90;;;;;;;23.02;52.64;99495.38;7312919;19;130354;-43
2022/06/04 05:17:21;;;;;;;24.40;2.22;;;;;;;22.97;53.10;99483.72;7312988;19;129080;-42
2022/06/04 05:19:46;;;;;;;36.08;2.97;;;;;;;23.03;53.03;99485.72;7311026;19;128819;-41
2022/06/04 05:22:11;;;;;;;21.33;1.88;;;;;;;23.03;52.96;99488.34;7311883;19;130995;-42
2022/06/04 05:24:37;;;;;;;25.45;2.10;;;;;;;23.04;52.64;99498.69;7312187;19;129079;-42
2022/06/04 05:27:04;;;;;;;25.67;2.28;;;;;;;23.03;53.20;99506.69;7311895;19;129018;-42
2022/06/04 05:29:31;;;;;;;19.38;1.77;;;;;;;23.01;53.86;99512.09;7312223;19;129184;-42
2022/06/04 05:31:58;;;;;;;28.73;2.40;;;;;;;23.02;53.36;99508.50;7308620;19;131268;-42
2022/06/04 05:34:24;;;;;;;24.35;2.10;;;;;;;22.60;50.13;99504.81;7312214;19;129037;-41
2022/06/04 05:36:52;;;;;;;19.33;1.70;;;;;;;22.51;50.20;99504.88;7312292;19;129180;-42
2022/06/04 05:39:19;;;;;;;29.83;2.55;;;;;;;22.49;49.37;99507.63;7311410;19;129310;-41
2022/06/04 05:41:44;;;;;;;23.60;1.90;;;;;;;22.73;51.47;99509.69;7308535;19;130760;-42
2022/06/04 05:44:10;;;;;;;25.23;2.15;;;;;;;22.82;52.31;99509.63;7308976;19;130414;-42
2022/06/04 05:46:38;;;;;;;23.60;2.03;;;;;;;22.91;51.79;99523.63;7311470;19;129161;-42
2022/06/04 05:49:03;;;;;;;21.65;1.88;;;;;;;22.96;51.77;99530.06;7310473;19;129164;-42
2022/06/04 05:51:30;;;;;;;30.42;2.35;;;;;;;23.01;52.26;99534.88;7308894;19;130892;-42
2022/06/04 05:53:57;;;;;;;31.05;2.60;;;;;;;23.03;52.37;99538.16;7310289;19;129665;-41
2022/06/04 05:56:26;;;;;;;23.65;2.08;;;;;;;23.03;52.61;99538.16;7309710;19;128824;-43
2022/06/04 05:58:54;;;;;;;18.90;1.70;;;;;;;22.94;54.04;99533.84;7311425;19;128827;-41
2022/06/04 06:01:21;;;;;;;20.42;1.80;;;;;;;23.05;52.98;99546.72;7309102;19;129326;-43
2022/06/04 06:03:48;;;;;;;20.25;1.65;;;;;;;23.07;53.17;99550.00;7314778;19;131018;-42
2022/06/04 06:06:16;;;;;;;18.95;1.50;;;;;;;23.06;53.02;99553.59;7317465;19;128928;-41
2022/06/04 06:08:42;;;;;;;31.77;2.65;;;;;;;22.97;53.34;99533.53;7317362;19;129311;-41
2022/06/04 06:11:09;;;;;;;22.45;1.95;;;;;;;23.02;53.80;99541.78;7315041;19;130075;-42
2022/06/04 06:13:35;;;;;;;25.90;2.13;;;;;;;23.06;53.45;99543.94;7317760;19;130311;-41
2022/06/04 06:16:06;;;;;;;14.13;1.42;;;;;;;23.05;54.28;99550.16;7316036;19;129429;-42
2022/06/04 06:18:32;;;;;;;25.38;2.28;;;;;;;23.04;53.61;99560.78;7318647;19;129325;-43
2022/06/04 06:20:58;;;;;;;31.63;2.58;;;;;;;22.55;49.82;99558.63;7314009;19;130168;-42
2022/06/04 06:23:24;;;;;;;25.20;2.33;;;;;;;22.52;49.72;99562.34;7315928;19;130423;-40
2022/06/04 06:25:50;;;;;;;39.22;3.13;;;;;;;22.52;50.17;99564.13;7317589;19;128967;-43
2022/06/04 06:28:15;;;;;;;21.27;1.90;;;;;;;22.78;52.72;99560.69;7317069;19;129195;-42
2022/06/04 06:30:41;;;;;;;23.70;2.00;;;;;;;22.76;52.15;99553.94;7316907;19;129135;-42
2022/06/04 06:33:06;;;;;;;26.20;2.28;;;;;;;22.95;52.45;99573.00;7317467;19;130339;-41
2022/06/04 06:35:31;;;;;;;44.25;3.67;;;;;;;22.98;53.15;99572.72;7316861;19;128847;-42
2022/06/04 06:37:57;;;;;;;24.80;1.98;;;;;;;23.02;53.25;99581.09;7318019;19;129187;-41
2022/06/04 06:40:22;;;;;;;23.63;2.10;;;;;;;23.04;53.04;99574.72;7315318;19;130152;-40
2022/06/04 06:42:48;;;;;;;19.30;1.70;;;;;;;23.06;52.75;99582.44;7316393;19;129264;-43
2022/06/04 06:45:13;;;;;;;37.85;2.80;;;;;;;23.08;52.41;99577.88;7316184;19;128847;-41
2022/06/04 06:47:40;;;;;;;25.27;2.08;;;;;;;23.06;52.75;99569.31;7316649;19;129847;-41
2022/06/04 06:50:06;;;;;;;32.63;2.70;;;;;;;23.08;52.45;99583.13;7315886;19;130459;-41
2022/06/04 06:52:32;;;;;;;24.23;2.07;;;;;;;22.98;53.24;99569.25;7317509;19;131703;-43
2022/06/04 06:54:57;;;;;;;22.98;2.00;;;;;;;23.07;53.12;99571.78;7316239;19;128785;-41
2022/06/04 06:57:23;;;;;;;24.52;2.00;;;;;;;23.08;53.54;99588.38;7314885;19;128862;-43
2022/06/04 06:59:48;;;;;;;24.20;1.90;;;;;;;23.05;53.05;99584.25;7315637;19;129433;-42
2022/06/04 07:02:14;;;;;;;19.63;1.80;;;;;;;23.06;53.18;99591.13;7316373;19;130370;-41
2022/06/04 07:04:40;;;;;;;24.35;2.10;;;;;;;22.63;50.71;99577.91;7315815;19;128896;-39
2022/06/04 07:07:06;;;;;;;28.00;2.20;;;;;;;22.55;50.26;99590.06;7314887;19;129198;-41
2022/06/04 07:09:34;;;;;;;31.60;2.85;;;;;;;22.54;49.50;99593.69;7315822;19;130076;-42
2022/06/04 07:12:01;;;;;;;22.83;1.88;;;;;;;22.75;51.53;99592.44;7313921;19;129784;-41
2022/06/04 07:14:27;;;;;;;27.45;2.17;;;;;;;22.84;52.08;99590.75;7312826;19;129078;-41
2022/06/04 07:16:54;;;;;;;22.30;1.97;;;;;;;22.92;52.56;99598.69;7315884;19;128957;-42
2022/06/04 07:19:21;;;;;;;15.90;1.60;;;;;;;22.97;52.68;99606.94;7316013;19;129490;-41
2022/06/04 07:21:47;;;;;;;14.00;1.27;;;;;;;23.00;52.93;99611.88;7313211;19;129337;-42
2022/06/04 07:24:13;;;;;;;49.53;3.73;;;;;;;23.04;52.14;99614.06;7313065;19;129579;-42
2022/06/04 07:26:39;;;;;;;23.15;2.15;;;;;;;23.05;52.47;99613.09;7314886;19;130148;-40
2022/06/04 07:29:05;;;;;;;23.63;1.98;;;;;;;23.07;53.12;99612.94;7316331;19;129132;-41
2022/06/04 07:31:31;;;;;;;21.80;1.85;;;;;;;23.07;52.64;99610.31;7311571;19;130537;-41
2022/06/04 07:33:58;;;;;;;28.63;2.42;;;;;;;23.08;52.57;99618.03;7315484;19;129186;-43
2022/06/04 07:36:30;;;;;;;24.10;2.08;;;;;;;23.07;53.62;99613.75;7313693;19;129435;-40
2022/06/04 07:38:56;;;;;;;23.50;1.98;;;;;;;23.04;53.21;99628.94;7316676;19;130643;-43
2022/06/04 07:41:31;;;;;;;27.93;2.37;;;;;;;23.06;54.52;99630.47;7313812;19;130617;-41
2022/06/04 07:43:57;;;;;;;37.30;2.72;;;;;;;23.06;53.06;99625.22;7313311;19;129892;-42
2022/06/04 07:46:24;;;;;;;5.65;0.85;;;;;;;23.06;53.66;99624.41;7314318;19;129738;-39
2022/06/04 07:48:50;;;;;;;;;;;;;;;22.74;50.72;99616.19;7315441;19;130021;-42
2022/06/04 07:51:17;;;;;;;6.40;0.77;;;;;;;22.57;49.97;99624.81;7311630;19;130350;-41
2022/06/04 07:53:42;;;;;;;21.58;1.95;;;;;;;22.53;49.84;99628.69;7314458;19;128882;-43
2022/06/04 07:56:12;;;;;;;26.42;2.20;;;;;;;22.73;51.66;99635.50;7314784;19;129101;-42
2022/06/04 07:58:38;;;;;;;23.20;2.03;;;;;;;22.82;52.82;99639.88;7314448;19;130216;-42
2022/06/04 08:01:04;;;;;;;26.57;2.33;;;;;;;22.89;52.91;99640.94;7313191;19;129872;-42
2022/06/04 08:03:34;;;;;;;27.10;2.40;;;;;;;22.95;52.16;99635.09;7314480;19;129154;-41
2022/06/04 08:06:01;;;;;;;25.08;2.08;;;;;;;22.88;52.86;99628.78;7313802;19;129096;-41
2022/06/04 08:08:27;;;;;;;22.30;1.90;;;;;;;23.03;52.99;99648.28;7315322;19;129483;-42
2022/06/04 08:10:53;;;;;;;30.02;2.22;;;;;;;23.03;52.75;99645.69;7312200;19;130510;-41
2022/06/04 08:15:47;;;;;;;44.13;3.65;;;;;;;23.04;52.74;99644.69;7313950;19;129132;-41
2022/06/04 08:18:13;;;;;;;19.65;1.55;;;;;;;23.01;53.29;99637.13;7314389;19;130111;-42
2022/06/04 08:20:42;;;;;;;24.57;2.17;;;;;;;23.01;53.82;99635.34;7312738;19;130343;-40
2022/06/04 08:23:09;;;;;;;20.95;1.73;;;;;;;23.08;52.95;99646.06;7313412;19;129239;-43
2022/06/04 08:25:47;;;;;;;29.42;2.63;;;;;;;23.09;54.66;99642.44;7313081;19;128674;-39
2022/06/04 08:28:16;;;;;;;26.30;2.25;;;;;;;23.09;53.60;99647.69;7313570;19;130265;-41
2022/06/04 08:30:43;;;;;;;28.35;2.33;;;;;;;23.06;53.20;99643.59;7312097;19;129638;-42
2022/06/04 08:33:08;;;;;;;15.15;1.42;;;;;;;23.06;53.24;99637.50;7314404;19;129774;-42
2022/06/04 08:35:34;;;;;;;27.93;2.47;;;;;;;22.60;50.33;99629.75;7314148;19;129059;-43
2022/06/04 08:37:59;;;;;;;32.03;2.43;;;;;;;22.54;49.62;99641.69;7314224;19;130249;-42
2022/06/04 08:40:32;;;;;;;24.77;2.47;;;;;;;22.56;49.78;99633.66;7311430;19;129503;-41
2022/06/04 08:43:24;;;;;;;26.15;2.22;;;;;;;22.83;53.63;99644.13;7312167;19;128967;-43
2022/06/04 08:45:51;;;;;;;37.88;2.83;;;;;;;22.91;52.52;99646.84;7312076;19;129584;-42
2022/06/04 08:48:22;;;;;;;25.65;2.03;;;;;;;22.97;53.09;99644.47;7314026;19;130179;-42
2022/06/04 08:50:49;;;;;;;20.17;1.80;;;;;;;23.01;52.68;99650.22;7310744;19;129397;-43
2022/06/04 08:53:25;;;;;;;25.02;2.33;;;;;;;23.02;54.33;99649.28;7313714;19;129161;-42
2022/06/04 08:58:55;;;;;;;19.88;1.65;;;;;;;23.06;53.64;99653.25;7312598;19;129466;-42
2022/06/04 09:01:35;;;;;;;25.10;2.08;;;;;;;23.07;54.29;99668.03;7310230;19;129514;-42
2022/06/04 09:04:38;;;;;;;30.55;2.35;;;;;;;23.08;54.50;99665.25;7311176;19;129134;-42
2022/06/04 09:07:23;;;;;;;23.85;2.08;;;;;;;23.10;54.86;99665.09;7312102;19;129132;-42
2022/06/04 09:10:03;;;;;;;21.45;2.03;;;;;;;23.00;53.62;99646.81;7311154;19;129541;-42
2022/06/04 09:12:38;;;;;;;22.08;1.92;;;;;;;23.08;53.98;99672.28;7310971;19;130339;-42
2022/06/04 09:15:29;;;;;;;24.55;2.25;;;;;;;23.10;54.87;99670.34;7313236;19;129000;-43
2022/06/04 09:17:56;;;;;;;29.13;2.53;;;;;;;23.10;53.00;99670.34;7312691;19;129158;-42
2022/06/04 09:20:37;;;;;;;27.75;2.50;;;;;;;22.60;50.37;99674.31;7312088;19;129512;-42
2022/06/04 09:23:11;;;;;;;26.05;2.15;;;;;;;22.53;49.24;99670.59;7312027;19;129292;-42
2022/06/04 09:26:15;;;;;;;30.15;2.45;;;;;;;22.68;51.88;99674.41;7311948;19;129132;-41
2022/06/04 09:29:10;;;;;;;32.58;2.80;;;;;;;22.81;52.84;99674.91;7311602;19;128843;-42
2022/06/04 09:32:00;;;;;;;23.60;2.08;;;;;;;22.94;53.95;99680.66;7307866;19;129721;-41
2022/06/04 09:34:31;;;;;;;10.70;1.27;;;;;;;22.98;52.90;99688.06;7312628;19;130492;-42
2022/06/04 09:36:58;;;;;;;11.10;1.27;;;;;;;23.03;52.71;99696.34;7312409;19;128859;-43
2022/06/04 09:39:31;;;;;;;;;;;;;;;23.05;54.69;99680.44;7318026;19;129579;-41
2022/06/04 09:42:01;;;;;;;26.00;2.17;;;;;;;23.07;53.26;99689.00;7316497;19;130171;-42
2022/06/04 09:44:29;;;;;;;26.33;2.15;;;;;;;23.08;53.05;99693.25;7317124;19;129200;-41
2022/06/04 09:47:07;;;;;;;24.25;2.10;;;;;;;23.07;54.17;99697.66;7317676;19;129946;-41
2022/06/04 09:49:39;;;;;;;21.38;1.85;;;;;;;23.08;53.50;99703.75;7318403;19;129016;-41
2022/06/04 09:52:24;;;;;;;29.17;2.30;;;;;;;23.11;54.87;99703.44;7318809;19;129800;-41
2022/06/04 09:55:17;;;;;;;16.75;1.67;;;;;;;23.03;55.28;99691.09;7319017;19;129362;-41
2022/06/04 09:57:54;;;;;;;26.58;2.08;;;;;;;23.11;53.14;99703.44;7318167;19;128922;-42
2022/06/04 10:00:24;;;;;;;21.70;1.80;;;;;;;23.01;53.26;99689.56;7316968;19;128829;-42
2022/06/04 10:03:03;;;;;;;19.20;1.60;;;;;;;22.92;51.74;99698.31;7318588;19;130237;-41
2022/06/04 10:05:31;;;;;;;28.90;2.50;;;;;;;22.57;50.58;99698.19;7316988;19;130664;-41
2022/06/04 10:07:57;;;;;;;21.00;1.80;;;;;;;22.57;49.84;99692.94;7317483;19;129224;-42
2022/06/04 10:10:29;;;;;;;29.93;2.33;;;;;;;22.65;50.68;99699.13;7315666;19;128934;-41
2022/06/04 10:15:46;;;;;;;22.75;1.98;;;;;;;22.93;52.54;99689.47;7317652;19;129136;-41
2022/06/04 10:18:30;;;;;;;24.75;2.03;;;;;;;22.97;53.73;99691.66;7319564;19;130194;-43
2022/06/04 10:21:01;;;;;;;27.63;2.33;;;;;;;23.03;53.15;99692.88;7315563;19;128995;-42
2022/06/04 10:23:28;;;;;;;24.98;2.05;;;;;;;23.06;53.37;99695.19;7317400;19;129408;-43
2022/06/04 10:25:54;;;;;;;47.67;3.42;;;;;;;23.07;52.86;99694.25;7316371;19;130634;-41
2022/06/04 10:28:34;;;;;;;35.63;2.67;;;;;;;23.07;53.79;99694.25;7316461;19;129062;-42
2022/06/04 10:31:17;;;;;;;27.20;2.40;;;;;;;23.08;54.68;99701.97;7315917;19;128902;-41
2022/06/04 10:33:57;;;;;;;19.67;1.65;;;;;;;23.10;54.18;99693.94;7316703;19;129140;-42
2022/06/04 10:36:41;;;;;;;26.48;2.25;;;;;;;23.10;53.23;99707.06;7316075;19;129188;-41
2022/06/04 10:39:35;;;;;;;13.07;1.40;;;;;;;23.10;53.99;99700.03;7316292;19;128856;-41
2022/06/04 10:42:09;;;;;;;26.25;2.17;;;;;;;23.10;53.81;99696.56;7312787;19;129608;-42
2022/06/04 10:44:49;;;;;;;26.27;2.22;;;;;;;23.10;55.16;99691.31;7315844;19;130165;-43
2022/06/04 10:47:30;;;;;;;22.05;1.77;;;;;;;22.98;53.03;99687.25;7316567;19;130516;-40
2022/06/04 10:50:18;;;;;;;26.73;2.15;;;;;;;22.58;50.33;99687.56;7315009;19;130127;-42
2022/06/04 10:52:45;;;;;;;5.53;0.83;;;;;;;22.49;50.00;99679.72;7316645;19;129171;-43
2022/06/04 10:55:22;;;;;;;37.13;2.92;;;;;;;22.71;52.79;99697.75;7315673;19;130182;-41
2022/06/04 10:58:19;;;;;;;43.00;3.00;;;;;;;22.88;54.59;99702.19;7315183;19;130314;-42
2022/06/04 11:01:31;;;;;;;24.70;1.92;;;;;;;22.95;53.89;99719.84;7314621;19;129696;-41
2022/06/04 11:04:21;;;;;;;18.75;1.70;;;;;;;23.03;54.55;99719.09;7314349;19;129008;-41
2022/06/04 11:06:53;;;;;;;23.88;2.00;;;;;;;22.98;53.13;99708.22;7314953;19;128983;-42
2022/06/04 11:09:31;;;;;;;34.50;2.70;;;;;;;23.09;52.34;99721.13;7316021;19;129856;-42
2022/06/04 11:12:16;;;;;;;24.20;1.92;;;;;;;23.09;54.02;99721.13;7314592;19;129051;-42
2022/06/04 11:14:48;;;;;;;31.73;2.78;;;;;;;23.10;54.12;99730.66;7316468;19;129244;-42
2022/06/04 11:17:38;;;;;;;23.05;1.85;;;;;;;23.11;54.10;99724.44;7315105;19;129104;-43
2022/06/04 11:20:11;;;;;;;22.02;1.90;;;;;;;23.09;53.35;99723.75;7315537;19;129625;-43
2022/06/04 11:22:39;;;;;;;24.73;2.10;;;;;;;23.10;52.98;99725.41;7316103;19;128664;-42
2022/06/04 11:25:15;;;;;;;17.20;1.92;;;;;;;23.10;54.65;99731.50;7312614;19;128944;-41
2022/06/04 11:27:45;;;;;;;26.10;2.25;;;;;;;23.09;53.28;99729.00;7315714;19;131055;-43
2022/06/04 11:30:17;;;;;;;28.35;2.35;;;;;;;23.00;54.54;99708.91;7313818;19;129768;-41
2022/06/04 11:32:47;;;;;;;29.02;2.40;;;;;;;22.70;50.06;99728.34;7315098;19;129042;-42
2022/06/04 11:35:46;;;;;;;24.58;2.00;;;;;;;22.58;49.89;99715.56;7314792;19;128943;-42
2022/06/04 11:38:12;;;;;;;26.33;2.17;;;;;;;22.56;48.98;99712.28;7314524;19;131366;-42
2022/06/04 11:41:31;;;;;;;34.92;2.85;;;;;;;22.85;54.30;99720.84;7313567;19;130438;-45
2022/06/04 11:44:11;;;;;;;;;;;;;;;22.99;54.76;99725.63;7310792;19;129538;-40
2022/06/04 11:46:46;;;;;;;28.17;2.38;;;;;;;23.01;53.70;99718.41;7313439;19;129962;-42
2022/06/04 11:49:16;;;;;;;36.53;3.22;;;;;;;23.03;52.98;99716.47;7314780;19;129284;-42
2022/06/04 11:51:47;;;;;;;40.75;3.30;;;;;;;23.05;52.49;99717.16;7312465;19;129237;-41
2022/06/04 11:54:21;;;;;;;25.10;2.15;;;;;;;23.06;53.91;99716.19;7314300;19;128944;-41